Time;durP1;ratioP1;P1;durP2;ratioP2;P2;SDS_P1;SDS_P2;PMS_P1;PMS_P2;Temp;Humidity;BMP_temperature;BMP_pressure;BME280_temperature;BME280_humidity;BME280_pressure;Samples;Min_cycle;Max_cycle;Signal;HPM_P1;HPM_P2
2022/09/18 00:01:39;;;;;;;7.20;3.37;;;12.40;1.00;;;;;;6046230;23;20423;-79
2022/09/18 00:04:13;;;;;;;5.57;2.27;;;12.40;1.00;;;;;;6037221;23;20982;-79
2022/09/18 00:06:43;;;;;;;4.20;2.37;;;12.30;1.00;;;;;;6046969;23;20957;-77
2022/09/18 00:09:14;;;;;;;4.07;2.27;;;12.20;1.00;;;;;;6038356;23;20426;-79
2022/09/18 00:11:43;;;;;;;5.73;2.73;;;12.20;1.00;;;;;;6034953;23;20425;-78
2022/09/18 00:14:14;;;;;;;6.70;2.33;;;12.10;1.00;;;;;;6034522;23;20478;-78
2022/09/18 00:16:43;;;;;;;7.13;3.33;;;12.10;1.00;;;;;;6035243;23;20467;-80
2022/09/18 00:19:14;;;;;;;3.90;2.70;;;12.00;1.00;;;;;;6037940;23;21310;-77
2022/09/18 00:21:45;;;;;;;3.80;2.67;;;11.90;1.00;;;;;;6030413;23;20431;-79
2022/09/18 00:24:13;;;;;;;3.77;2.43;;;11.90;1.00;;;;;;6022674;23;20437;-78
2022/09/18 00:26:43;;;;;;;5.30;2.33;;;11.90;1.00;;;;;;6049384;23;20466;-78
2022/09/18 00:29:14;;;;;;;5.03;2.60;;;11.90;1.00;;;;;;6073275;23;20417;-78
2022/09/18 00:31:42;;;;;;;4.23;2.20;;;11.70;1.00;;;;;;6063318;23;20992;-78
2022/09/18 00:34:11;;;;;;;3.30;2.13;;;11.70;1.00;;;;;;6077522;23;20495;-77
2022/09/18 00:36:39;;;;;;;3.33;2.27;;;11.70;1.00;;;;;;6076527;23;20438;-78
2022/09/18 00:39:11;;;;;;;3.37;1.90;;;11.70;1.00;;;;;;6077103;23;20409;-78
2022/09/18 00:41:42;;;;;;;4.07;2.20;;;11.60;1.00;;;;;;6049833;23;20488;-78
2022/09/18 00:44:32;;;;;;;3.00;1.80;;;11.60;1.00;;;;;;6077404;23;20488;-78
2022/09/18 00:47:21;;;;;;;3.23;2.17;;;11.50;1.00;;;;;;6061649;23;20437;-79
2022/09/18 00:49:52;;;;;;;3.93;2.20;;;11.50;1.00;;;;;;6044471;23;20443;-77
2022/09/18 00:52:21;;;;;;;4.10;2.50;;;11.50;1.00;;;;;;6075740;23;20990;-78
2022/09/18 00:54:56;;;;;;;3.57;2.20;;;11.50;1.00;;;;;;6064457;23;21172;-78
2022/09/18 00:57:27;;;;;;;3.90;2.00;;;11.40;1.00;;;;;;6075889;23;20864;-78
2022/09/18 00:59:55;;;;;;;4.53;2.10;;;11.50;1.00;;;;;;6074681;23;20421;-79
2022/09/18 01:02:22;;;;;;;3.83;2.00;;;11.50;1.00;;;;;;6074929;23;21214;-78
2022/09/18 01:04:51;;;;;;;3.87;2.13;;;11.40;1.00;;;;;;6075697;23;21157;-79
2022/09/18 01:07:36;;;;;;;3.53;2.10;;;11.40;1.00;;;;;;6075943;23;20438;-78
2022/09/18 01:10:20;;;;;;;5.70;2.27;;;11.30;1.00;;;;;;6074508;23;20524;-78
2022/09/18 01:12:54;;;;;;;3.10;1.43;;;11.30;1.00;;;;;;6073948;23;20513;-78
2022/09/18 01:15:36;;;;;;;3.73;1.40;;;11.30;1.00;;;;;;6075954;23;20404;-77
2022/09/18 01:18:13;;;;;;;3.20;1.60;;;11.20;1.00;;;;;;6073513;23;20465;-78
2022/09/18 01:21:07;;;;;;;2.37;1.10;;;11.20;1.00;;;;;;6074496;23;20433;-78
2022/09/18 01:24:11;;;;;;;3.27;1.30;;;11.10;1.00;;;;;;6072920;23;20477;-78
2022/09/18 01:26:54;;;;;;;2.73;1.20;;;11.10;1.00;;;;;;6071888;23;20452;-78
2022/09/18 01:29:30;;;;;;;2.03;0.70;;;11.00;1.00;;;;;;6073484;23;20405;-78
2022/09/18 01:32:06;;;;;;;3.90;1.27;;;11.00;1.00;;;;;;6072091;23;20424;-79
2022/09/18 01:34:40;;;;;;;2.10;0.70;;;11.00;1.00;;;;;;6072852;23;20417;-76
2022/09/18 01:37:15;;;;;;;1.90;1.00;;;11.00;1.00;;;;;;6074064;23;20948;-78
2022/09/18 01:39:49;;;;;;;1.20;0.80;;;11.00;1.00;;;;;;6073478;23;20440;-78
2022/09/18 01:42:19;;;;;;;1.40;0.70;;;11.00;1.00;;;;;;6074106;23;20464;-79
2022/09/18 01:44:51;;;;;;;1.40;0.80;;;10.90;1.00;;;;;;6073853;23;20457;-79
2022/09/18 01:47:21;;;;;;;2.07;0.93;;;10.90;1.00;;;;;;6078486;23;20444;-80
2022/09/18 01:49:54;;;;;;;4.03;1.13;;;10.90;1.00;;;;;;6078192;23;20477;-78
2022/09/18 01:52:27;;;;;;;1.87;0.83;;;10.90;1.00;;;;;;6080107;23;20413;-77
2022/09/18 01:54:56;;;;;;;2.23;0.90;;;10.80;1.00;;;;;;6077919;23;20838;-79
2022/09/18 01:57:27;;;;;;;1.87;1.00;;;10.80;1.00;;;;;;6063012;23;20426;-78
2022/09/18 02:00:04;;;;;;;1.70;0.90;;;10.80;1.00;;;;;;6075509;23;20461;-77
2022/09/18 02:02:37;;;;;;;1.83;0.83;;;10.80;1.00;;;;;;6077297;23;20409;-79
2022/09/18 02:05:09;;;;;;;1.20;0.60;;;10.80;1.00;;;;;;6077632;23;20422;-79
2022/09/18 02:07:43;;;;;;;1.30;0.60;;;10.80;1.00;;;;;;6077252;23;20473;-78
2022/09/18 02:10:11;;;;;;;2.10;0.80;;;10.80;1.00;;;;;;6077754;23;20432;-77
2022/09/18 02:12:40;;;;;;;3.40;0.80;;;10.80;1.00;;;;;;6075283;23;20429;-78
2022/09/18 02:15:13;;;;;;;2.10;1.00;;;10.80;1.00;;;;;;6076438;23;20484;-78
2022/09/18 02:17:46;;;;;;;1.60;1.00;;;10.90;1.00;;;;;;6075263;23;21132;-77
2022/09/18 02:20:19;;;;;;;1.93;0.70;;;10.90;1.00;;;;;;6076807;23;20433;-78
2022/09/18 02:22:49;;;;;;;2.40;1.10;;;10.90;1.00;;;;;;6075537;23;20548;-78
2022/09/18 02:25:27;;;;;;;1.30;0.70;;;11.00;1.00;;;;;;6076280;23;20413;-78
2022/09/18 02:27:55;;;;;;;2.20;0.80;;;11.00;1.00;;;;;;6076166;23;21108;-78
2022/09/18 02:30:24;;;;;;;1.13;0.60;;;11.00;1.00;;;;;;6077751;23;20440;-78
2022/09/18 02:32:54;;;;;;;1.33;0.70;;;11.00;1.00;;;;;;6076976;23;20437;-78
2022/09/18 02:35:23;;;;;;;2.23;1.30;;;11.00;1.00;;;;;;6061527;23;20417;-78
2022/09/18 02:38:12;;;;;;;1.73;1.30;;;11.00;1.00;;;;;;6055414;23;20369;-78
2022/09/18 02:41:01;;;;;;;1.57;0.93;;;11.00;1.00;;;;;;6069244;23;20457;-78
2022/09/18 02:43:43;;;;;;;1.93;0.90;;;11.10;1.00;;;;;;6083622;23;20382;-78
2022/09/18 02:46:32;;;;;;;2.23;1.20;;;11.10;1.00;;;;;;6055119;23;20465;-79
2022/09/18 02:49:13;;;;;;;3.10;1.20;;;11.10;1.00;;;;;;6046737;23;20468;-80
2022/09/18 02:51:52;;;;;;;3.73;1.13;;;11.10;1.00;;;;;;6053379;23;20433;-78
2022/09/18 02:54:30;;;;;;;3.83;1.90;;;11.10;1.00;;;;;;6079251;23;20478;-80
2022/09/18 02:57:01;;;;;;;3.58;1.38;;;11.00;1.00;;;;;;6059161;23;20506;-78
2022/09/18 02:59:32;;;;;;;3.00;1.50;;;11.00;1.00;;;;;;6072010;23;20216;-82
2022/09/18 03:02:00;;;;;;;3.47;2.03;;;11.00;1.00;;;;;;6072377;23;20508;-77
2022/09/18 03:04:28;;;;;;;4.90;2.10;;;11.00;1.00;;;;;;6072408;23;20509;-79
2022/09/18 03:06:55;;;;;;;4.37;1.90;;;11.00;1.00;;;;;;6074342;23;20413;-78
2022/09/18 03:09:22;;;;;;;6.63;2.20;;;11.00;1.00;;;;;;6073985;23;20434;-77
2022/09/18 03:11:50;;;;;;;5.43;2.07;;;11.00;1.00;;;;;;6073179;23;20457;-79
2022/09/18 03:14:17;;;;;;;4.57;2.30;;;11.00;1.00;;;;;;6073427;23;20422;-77
2022/09/18 03:16:44;;;;;;;5.40;2.10;;;11.00;1.00;;;;;;6060540;23;20405;-78
2022/09/18 03:19:13;;;;;;;5.53;2.53;;;10.90;1.00;;;;;;6073198;23;20447;-78
2022/09/18 03:21:42;;;;;;;6.60;2.60;;;11.00;1.00;;;;;;6073489;23;20439;-78
2022/09/18 03:24:09;;;;;;;8.97;3.07;;;10.90;1.00;;;;;;6075410;23;20429;-78
2022/09/18 03:26:35;;;;;;;9.80;3.50;;;10.90;1.00;;;;;;6074664;23;20502;-77
2022/09/18 03:29:07;;;;;;;6.90;3.20;;;10.80;1.00;;;;;;6072942;23;20398;-78
2022/09/18 03:31:35;;;;;;;7.40;3.53;;;10.80;1.00;;;;;;6072986;23;20393;-78
2022/09/18 03:34:04;;;;;;;8.70;3.70;;;10.80;1.00;;;;;;6076256;23;20501;-78
2022/09/18 03:36:33;;;;;;;11.77;4.83;;;10.80;1.00;;;;;;6071839;23;20457;-82
2022/09/18 03:39:04;;;;;;;8.03;2.93;;;10.80;1.00;;;;;;6072158;23;20513;-80
2022/09/18 03:41:31;;;;;;;6.90;3.53;;;10.80;1.00;;;;;;6071084;23;20438;-78
2022/09/18 03:43:58;;;;;;;8.13;3.37;;;10.90;1.00;;;;;;6073007;23;20422;-77
2022/09/18 03:46:25;;;;;;;9.53;3.70;;;10.80;1.00;;;;;;6071797;23;20417;-77
2022/09/18 03:48:53;;;;;;;7.83;2.37;;;10.90;1.00;;;;;;6071596;23;21054;-79
2022/09/18 03:51:23;;;;;;;7.90;3.90;;;10.90;1.00;;;;;;6058816;23;20429;-77
2022/09/18 03:53:51;;;;;;;15.17;3.50;;;10.90;1.00;;;;;;6059371;23;20421;-77
2022/09/18 03:56:18;;;;;;;7.53;4.00;;;10.90;1.00;;;;;;6073296;23;20398;-79
2022/09/18 03:58:45;;;;;;;14.03;4.30;;;10.80;1.00;;;;;;6072227;23;20947;-77
2022/09/18 04:01:13;;;;;;;7.60;3.60;;;10.80;1.00;;;;;;6071443;23;21185;-78
2022/09/18 04:03:40;;;;;;;10.43;3.93;;;10.80;1.00;;;;;;6068864;23;20418;-80
2022/09/18 04:06:08;;;;;;;12.97;4.10;;;10.90;1.00;;;;;;6071002;23;20405;-76
2022/09/18 04:08:36;;;;;;;12.20;4.57;;;10.90;1.00;;;;;;6071089;23;20501;-79
2022/09/18 04:11:07;;;;;;;9.70;4.80;;;10.90;1.00;;;;;;6073720;23;20445;-78
2022/09/18 04:13:34;;;;;;;10.57;4.70;;;10.90;1.00;;;;;;6057154;23;20962;-79
2022/09/18 04:16:02;;;;;;;8.80;4.60;;;10.90;1.00;;;;;;6071274;23;20460;-78
2022/09/18 04:18:29;;;;;;;10.70;4.07;;;10.90;1.00;;;;;;6073266;23;20817;-79
2022/09/18 04:20:57;;;;;;;8.40;4.13;;;10.80;1.00;;;;;;6073879;23;20440;-78
2022/09/18 04:23:25;;;;;;;8.93;4.70;;;10.80;1.00;;;;;;6073739;23;20409;-81
2022/09/18 04:25:52;;;;;;;14.27;4.60;;;10.80;1.00;;;;;;6071822;23;20401;-78
2022/09/18 04:28:23;;;;;;;11.10;4.87;;;10.90;1.00;;;;;;6071802;23;20428;-77
2022/09/18 04:30:50;;;;;;;11.27;4.83;;;10.90;1.00;;;;;;6074049;23;21200;-79
2022/09/18 04:33:18;;;;;;;10.57;4.90;;;10.90;1.00;;;;;;6069808;23;20425;-80
2022/09/18 04:35:45;;;;;;;8.83;4.30;;;10.90;1.00;;;;;;6070890;23;20440;-78
2022/09/18 04:38:12;;;;;;;9.30;4.57;;;11.00;1.00;;;;;;6072976;23;21060;-81
2022/09/18 04:40:38;;;;;;;8.60;4.10;;;11.00;1.00;;;;;;6071571;23;20797;-77
2022/09/18 04:43:05;;;;;;;10.20;5.27;;;11.00;1.00;;;;;;6073814;23;20421;-80
2022/09/18 04:45:33;;;;;;;7.27;4.50;;;11.00;1.00;;;;;;6071746;23;20440;-78
2022/09/18 04:48:00;;;;;;;10.57;4.40;;;11.00;1.00;;;;;;6073178;23;20475;-77
2022/09/18 04:50:27;;;;;;;11.90;4.53;;;11.00;1.00;;;;;;6072524;23;21220;-78
2022/09/18 04:52:54;;;;;;;8.00;3.97;;;11.00;1.00;;;;;;6072923;23;20903;-77
2022/09/18 04:55:22;;;;;;;12.13;4.77;;;11.00;1.00;;;;;;6060977;23;20857;-79
2022/09/18 04:57:50;;;;;;;7.87;4.00;;;11.10;1.00;;;;;;6072930;23;20497;-77
2022/09/18 05:00:17;;;;;;;7.40;3.70;;;11.10;1.00;;;;;;6057080;23;20868;-78
2022/09/18 05:02:52;;;;;;;9.87;4.60;;;11.00;1.00;;;;;;6070696;23;20417;-76
2022/09/18 05:05:20;;;;;;;7.83;3.67;;;11.00;1.00;;;;;;6071708;23;20428;-78
2022/09/18 05:07:47;;;;;;;9.80;4.27;;;11.00;1.00;;;;;;6071248;23;20465;-77
2022/09/18 05:10:14;;;;;;;7.47;4.50;;;11.10;1.00;;;;;;6074010;23;20438;-77
2022/09/18 05:12:42;;;;;;;9.17;4.33;;;11.00;1.00;;;;;;6071575;23;20496;-78
2022/09/18 05:15:10;;;;;;;10.63;4.00;;;11.00;1.00;;;;;;6049795;23;20507;-78
2022/09/18 05:17:39;;;;;;;11.10;3.37;;;11.00;1.00;;;;;;6071774;23;20437;-79
2022/09/18 05:20:10;;;;;;;8.73;4.47;;;11.00;1.00;;;;;;6073515;23;20410;-78
2022/09/18 05:22:39;;;;;;;6.77;3.57;;;10.90;1.00;;;;;;6070646;23;21012;-77
2022/09/18 05:25:08;;;;;;;4.80;3.40;;;10.90;1.00;;;;;;6076247;23;20428;-79
2022/09/18 05:27:36;;;;;;;23.20;11.20;;;11.00;1.00;;;;;;6077737;23;20437;-82
2022/09/18 05:30:10;;;;;;;7.43;3.33;;;11.00;1.00;;;;;;6076964;23;20441;-81
2022/09/18 05:32:36;;;;;;;6.47;3.40;;;11.10;1.00;;;;;;6063233;23;20424;-81
2022/09/18 05:35:04;;;;;;;7.20;3.83;;;11.10;1.00;;;;;;6077860;23;20398;-79
2022/09/18 05:37:32;;;;;;;8.07;2.80;;;11.00;1.00;;;;;;6078984;23;20433;-79
2022/09/18 05:40:00;;;;;;;8.73;4.13;;;11.00;1.00;;;;;;6078792;23;20433;-81
2022/09/18 05:42:27;;;;;;;7.90;3.10;;;11.00;1.00;;;;;;6076258;23;20930;-79
2022/09/18 05:44:56;;;;;;;7.73;2.90;;;11.00;1.00;;;;;;6076975;23;20437;-79
2022/09/18 05:47:28;;;;;;;6.40;2.07;;;11.10;1.00;;;;;;6073899;23;20393;-80
2022/09/18 05:49:55;;;;;;;6.80;2.47;;;11.10;1.00;;;;;;6075299;23;20429;-78
2022/09/18 05:52:24;;;;;;;7.10;2.77;;;11.00;1.00;;;;;;6075388;23;21450;-79
2022/09/18 05:54:54;;;;;;;7.60;3.20;;;11.00;1.00;;;;;;6047536;23;20425;-81
2022/09/18 05:57:21;;;;;;;8.70;3.00;;;10.90;1.00;;;;;;6074817;23;20446;-80
2022/09/18 05:59:48;;;;;;;9.17;3.03;;;10.90;1.00;;;;;;6073662;23;20419;-79
2022/09/18 06:02:15;;;;;;;6.70;2.43;;;10.90;1.00;;;;;;6074849;23;20457;-79
2022/09/18 06:04:41;;;;;;;7.37;3.00;;;10.70;1.00;;;;;;6074575;23;20448;-80
2022/09/18 06:07:08;;;;;;;7.40;2.40;;;10.70;1.00;;;;;;6075335;23;20440;-78
2022/09/18 06:09:35;;;;;;;8.83;3.00;;;10.70;1.00;;;;;;6072743;23;20521;-79
2022/09/18 06:12:04;;;;;;;6.90;3.30;;;10.70;1.00;;;;;;6074786;23;20424;-79
2022/09/18 06:14:31;;;;;;;6.43;3.33;;;10.70;1.00;;;;;;6074269;23;20433;-77
2022/09/18 06:16:59;;;;;;;8.20;3.03;;;10.80;1.00;;;;;;6073493;23;20397;-78
2022/09/18 06:19:28;;;;;;;6.00;2.57;;;10.70;1.00;;;;;;6073826;23;20447;-78
2022/09/18 06:21:56;;;;;;;7.32;2.85;;;10.70;1.00;;;;;;6072943;23;20436;-80
2022/09/18 06:24:23;;;;;;;5.20;2.50;;;10.70;1.00;;;;;;6071974;23;20221;-78
2022/09/18 06:26:51;;;;;;;5.80;2.20;;;10.70;1.00;;;;;;6066078;23;20430;-78
2022/09/18 06:29:19;;;;;;;9.43;2.30;;;10.70;1.00;;;;;;6069884;23;20441;-79
2022/09/18 06:31:45;;;;;;;6.63;2.33;;;10.70;1.00;;;;;;6069899;23;20432;-78
2022/09/18 06:34:12;;;;;;;9.50;2.53;;;10.70;1.00;;;;;;6070496;23;20505;-79
2022/09/18 06:36:39;;;;;;;5.97;2.17;;;10.70;1.00;;;;;;6072310;23;20426;-79
2022/09/18 06:39:06;;;;;;;4.40;2.07;;;10.70;1.00;;;;;;6073705;23;20512;-79
2022/09/18 06:41:33;;;;;;;12.40;2.55;;;10.80;1.00;;;;;;6068581;23;21188;-78
2022/09/18 06:44:00;;;;;;;6.50;2.20;;;10.90;1.00;;;;;;6071185;23;20653;-79
2022/09/18 06:46:29;;;;;;;7.83;2.90;;;10.90;1.00;;;;;;6071866;23;20453;-77
2022/09/18 06:48:56;;;;;;;8.73;2.27;;;10.90;1.00;;;;;;6069711;23;21121;-77
2022/09/18 06:51:22;;;;;;;7.33;2.00;;;11.00;1.00;;;;;;6070717;23;20449;-78
2022/09/18 06:53:49;;;;;;;10.83;2.50;;;11.00;1.00;;;;;;6069696;23;20516;-78
2022/09/18 06:56:18;;;;;;;7.63;2.80;;;11.10;1.00;;;;;;6072942;23;20429;-79
2022/09/18 06:58:45;;;;;;;8.70;3.13;;;11.10;1.00;;;;;;6068848;23;20429;-77
2022/09/18 07:01:11;;;;;;;7.60;2.50;;;11.20;1.00;;;;;;6070508;23;20413;-78
2022/09/18 07:03:39;;;;;;;5.77;2.43;;;11.20;1.00;;;;;;6071240;23;20452;-78
2022/09/18 07:06:09;;;;;;;6.70;2.23;;;11.30;1.00;;;;;;6070589;23;20410;-77
2022/09/18 07:08:37;;;;;;;11.57;2.83;;;11.40;1.00;;;;;;6069998;23;20440;-79
2022/09/18 07:11:04;;;;;;;5.37;1.93;;;11.40;1.00;;;;;;6071056;23;20410;-78
2022/09/18 07:13:36;;;;;;;5.77;2.57;;;11.50;1.00;;;;;;6067509;23;20437;-79
2022/09/18 07:16:03;;;;;;;5.77;2.20;;;11.50;1.00;;;;;;6061476;23;20513;-79
2022/09/18 07:18:30;;;;;;;7.07;2.33;;;11.50;1.00;;;;;;6058937;23;21138;-79
2022/09/18 07:21:00;;;;;;;8.10;2.20;;;11.60;1.00;;;;;;6058160;23;20422;-78
2022/09/18 07:23:28;;;;;;;7.37;2.10;;;11.60;1.00;;;;;;6072408;23;20462;-79
2022/09/18 07:25:55;;;;;;;10.47;2.97;;;11.60;1.00;;;;;;6072699;23;20517;-76
2022/09/18 07:28:23;;;;;;;5.53;2.40;;;11.70;1.00;;;;;;6073169;23;21136;-78
2022/09/18 07:30:52;;;;;;;6.80;2.30;;;11.80;1.00;;;;;;6072662;23;20435;-78
2022/09/18 07:33:20;;;;;;;8.70;2.80;;;11.80;1.00;;;;;;6073093;23;20445;-77
2022/09/18 07:35:47;;;;;;;6.83;2.63;;;11.90;1.00;;;;;;6072251;23;20784;-80
2022/09/18 07:38:15;;;;;;;7.33;1.90;;;12.00;1.00;;;;;;6075584;23;20429;-78
2022/09/18 07:40:45;;;;;;;5.87;2.70;;;12.00;1.00;;;;;;6051342;23;20405;-79
2022/09/18 07:43:17;;;;;;;6.30;2.20;;;12.10;1.00;;;;;;6039687;23;20482;-79
2022/09/18 07:45:44;;;;;;;5.40;1.97;;;12.20;1.00;;;;;;6045141;23;20471;-78
2022/09/18 07:48:15;;;;;;;6.07;2.10;;;12.30;1.00;;;;;;6056808;23;20401;-78
2022/09/18 07:50:45;;;;;;;7.50;2.13;;;12.30;1.00;;;;;;6028512;23;20521;-77
2022/09/18 07:53:17;;;;;;;4.37;1.73;;;12.40;1.00;;;;;;6060490;23;20630;-80
2022/09/18 07:55:58;;;;;;;3.97;1.97;;;12.40;1.00;;;;;;6054094;23;20429;-75
2022/09/18 07:58:27;;;;;;;9.97;2.77;;;12.50;1.00;;;;;;6062335;23;20490;-81
2022/09/18 08:00:57;;;;;;;8.33;2.33;;;12.80;1.00;;;;;;6074856;23;20453;-79
2022/09/18 08:03:30;;;;;;;10.00;1.93;;;12.90;1.00;;;;;;6023478;23;20914;-78
2022/09/18 08:06:02;;;;;;;5.70;2.00;;;13.00;1.00;;;;;;6044635;23;20418;-81
2022/09/18 08:08:35;;;;;;;7.10;1.97;;;13.10;1.00;;;;;;6070814;23;20517;-80
2022/09/18 08:11:05;;;;;;;10.83;3.70;;;13.00;1.00;;;;;;6059078;23;20398;-81
2022/09/18 08:13:35;;;;;;;6.07;2.07;;;13.00;1.00;;;;;;6060696;23;20441;-81
2022/09/18 08:16:06;;;;;;;8.63;2.40;;;12.90;1.00;;;;;;6069153;23;20396;-81
2022/09/18 08:18:35;;;;;;;9.40;2.43;;;13.00;1.00;;;;;;6047334;23;20409;-82
2022/09/18 08:21:13;;;;;;;10.13;2.13;;;13.20;1.00;;;;;;6075804;23;20425;-82
2022/09/18 08:23:53;;;;;;;4.37;1.80;;;13.20;1.00;;;;;;6073928;23;20469;-80
2022/09/18 08:26:25;;;;;;;6.30;1.50;;;13.40;1.00;;;;;;6081042;23;20410;-81
2022/09/18 08:28:54;;;;;;;7.23;2.00;;;13.60;1.00;;;;;;6044700;23;20422;-81
2022/09/18 08:31:26;;;;;;;9.73;2.30;;;13.70;1.00;;;;;;6053907;23;20393;-81
2022/09/18 08:33:56;;;;;;;4.77;2.40;;;13.80;1.00;;;;;;6055807;23;20424;-80
2022/09/18 08:36:23;;;;;;;6.57;2.50;;;13.90;1.00;;;;;;6045390;23;20393;-80
2022/09/18 08:38:58;;;;;;;5.37;2.87;;;14.10;1.00;;;;;;6066830;23;20492;-80
2022/09/18 08:41:54;;;;;;;4.87;1.67;;;14.10;1.00;;;;;;6058320;23;20401;-79
2022/09/18 08:44:34;;;;;;;7.33;2.20;;;14.10;1.00;;;;;;6065258;23;20390;-80
2022/09/18 08:47:13;;;;;;;6.87;1.67;;;14.10;1.00;;;;;;6048219;23;20437;-79
2022/09/18 08:50:06;;;;;;;8.37;2.10;;;14.10;1.00;;;;;;6057244;23;20433;-80
2022/09/18 08:53:03;;;;;;;5.10;1.63;;;14.00;1.00;;;;;;6047994;23;20517;-81
2022/09/18 08:55:46;;;;;;;7.23;2.00;;;13.90;1.00;;;;;;6048814;23;20460;-82
2022/09/18 08:58:17;;;;;;;7.63;2.40;;;14.00;1.00;;;;;;6060008;23;20414;-79
2022/09/18 09:00:51;;;;;;;11.50;2.77;;;14.30;1.00;;;;;;6042519;23;21300;-81
2022/09/18 09:03:32;;;;;;;6.33;1.63;;;14.50;1.00;;;;;;6040556;23;20429;-80
2022/09/18 09:06:06;;;;;;;6.93;2.30;;;14.80;1.00;;;;;;6035012;23;20406;-78
2022/09/18 09:09:04;;;;;;;8.23;2.23;;;15.20;1.00;;;;;;6036565;23;20408;-78
2022/09/18 09:11:44;;;;;;;5.70;1.70;;;15.60;1.00;;;;;;6030202;23;20435;-77
2022/09/18 09:14:47;;;;;;;7.70;2.50;;;15.70;1.00;;;;;;6058400;23;20440;-78
2022/09/18 09:17:21;;;;;;;8.00;2.30;;;16.00;1.00;;;;;;6009330;23;20402;-77
2022/09/18 09:19:54;;;;;;;7.20;1.80;;;16.30;1.00;;;;;;6038381;23;20526;-77
2022/09/18 09:22:33;;;;;;;7.33;2.47;;;15.80;1.00;;;;;;6035682;23;20438;-78
2022/09/18 09:25:24;;;;;;;7.30;2.00;;;15.30;1.00;;;;;;6057180;23;20465;-77
2022/09/18 09:28:14;;;;;;;6.40;1.63;;;15.00;1.00;;;;;;6046928;23;20413;-76
2022/09/18 09:30:46;;;;;;;4.53;1.63;;;15.00;1.00;;;;;;6084199;23;20402;-76
2022/09/18 09:33:26;;;;;;;6.30;2.20;;;15.00;1.00;;;;;;6081658;23;20440;-79
2022/09/18 09:36:03;;;;;;;4.57;2.00;;;15.90;1.00;;;;;;6084147;23;20463;-78
2022/09/18 09:38:43;;;;;;;7.80;2.60;;;17.40;1.00;;;;;;6083574;23;20385;-79
2022/09/18 09:41:26;;;;;;;5.40;2.00;;;17.30;1.00;;;;;;6084204;23;20461;-76
2022/09/18 09:44:15;;;;;;;6.33;1.67;;;16.80;1.00;;;;;;6082094;23;20429;-79
2022/09/18 09:47:20;;;;;;;5.80;1.87;;;18.20;1.00;;;;;;6083550;23;20756;-76
2022/09/18 09:50:02;;;;;;;4.13;1.40;;;19.80;1.00;;;;;;6081713;23;20424;-76
2022/09/18 09:52:36;;;;;;;6.30;1.63;;;19.10;1.00;;;;;;6083194;23;20487;-78
2022/09/18 09:55:20;;;;;;;6.83;1.53;;;20.00;1.00;;;;;;6081566;23;20429;-76
2022/09/18 09:58:04;;;;;;;6.60;1.50;;;21.10;1.00;;;;;;6081359;23;20413;-80
2022/09/18 10:00:45;;;;;;;7.13;1.50;;;20.80;1.00;;;;;;6081302;23;20481;-77
2022/09/18 10:03:46;;;;;;;6.57;1.70;;;19.60;1.00;;;;;;6081130;23;20401;-76
2022/09/18 10:06:26;;;;;;;9.37;2.07;;;20.10;1.00;;;;;;6080064;23;20516;-77
2022/09/18 10:09:04;;;;;;;11.27;2.20;;;19.10;1.00;;;;;;6076480;23;20419;-80
2022/09/18 10:11:42;;;;;;;8.40;3.43;;;17.70;1.00;;;;;;6063754;23;20403;-77
2022/09/18 10:14:17;;;;;;;13.97;3.17;;;16.30;1.00;;;;;;6081136;23;20425;-75
2022/09/18 10:16:55;;;;;;;5.70;1.93;;;15.20;1.00;;;;;;6081443;23;20408;-77
2022/09/18 10:19:46;;;;;;;8.20;2.07;;;14.50;1.00;;;;;;6081614;23;20397;-78
2022/09/18 10:22:21;;;;;;;7.10;1.80;;;14.60;1.00;;;;;;6080988;23;20390;-76
2022/09/18 10:24:56;;;;;;;7.90;1.83;;;16.80;1.00;;;;;;6080384;23;20432;-79
2022/09/18 10:27:29;;;;;;;7.53;1.70;;;18.50;1.00;;;;;;6080343;23;20464;-78
2022/09/18 10:29:58;;;;;;;9.60;2.97;;;20.40;1.00;;;;;;6025557;23;20503;-82
2022/09/18 10:32:37;;;;;;;9.47;1.90;;;20.90;1.00;;;;;;6025892;23;20912;-78
2022/09/18 10:35:42;;;;;;;8.93;2.10;;;21.70;1.00;;;;;;6026287;23;20387;-79
2022/09/18 10:38:44;;;;;;;7.57;2.10;;;22.70;1.00;;;;;;6018445;23;20406;-82
2022/09/18 10:41:33;;;;;;;8.43;1.57;;;23.40;1.00;;;;;;5916279;24;20406;-82
2022/09/18 10:44:24;;;;;;;7.37;1.80;;;21.10;1.00;;;;;;6014554;23;20399;-79
2022/09/18 10:46:58;;;;;;;8.60;1.90;;;19.30;1.00;;;;;;6028739;23;20411;-82
2022/09/18 10:49:30;;;;;;;7.70;1.33;;;18.20;1.00;;;;;;6025291;23;20834;-81
2022/09/18 10:52:22;;;;;;;7.00;1.67;;;17.90;1.00;;;;;;6020367;23;20415;-81
2022/09/18 10:55:11;;;;;;;7.30;1.50;;;18.80;1.00;;;;;;6022445;23;20967;-81
2022/09/18 10:57:42;;;;;;;7.57;2.00;;;20.40;1.00;;;;;;6020573;23;20510;-82
2022/09/18 11:00:45;;;;;;;7.80;2.63;;;22.90;1.00;;;;;;6018976;23;20446;-80
2022/09/18 11:03:28;;;;;;;6.97;1.77;;;22.80;1.00;;;;;;6012220;23;20435;-83
2022/09/18 11:05:59;;;;;;;10.33;1.83;;;21.20;1.00;;;;;;6020667;23;20920;-80
2022/09/18 11:08:32;;;;;;;6.27;1.30;;;19.40;1.00;;;;;;6003803;23;20470;-82
2022/09/18 11:11:29;;;;;;;7.27;1.50;;;18.00;1.00;;;;;;6022357;23;20459;-82
2022/09/18 11:13:58;;;;;;;8.50;1.80;;;16.80;1.00;;;;;;6020567;23;20418;-78
2022/09/18 11:16:30;;;;;;;5.87;1.10;;;16.60;1.00;;;;;;6020060;23;21282;-82
2022/09/18 11:19:13;;;;;;;6.47;2.10;;;18.90;1.00;;;;;;6008955;23;20526;-83
2022/09/18 11:21:55;;;;;;;7.37;1.90;;;22.40;1.00;;;;;;6015931;23;20471;-81
2022/09/18 11:24:29;;;;;;;6.50;1.57;;;25.20;1.00;;;;;;6022358;23;20427;-80
2022/09/18 11:26:58;;;;;;;7.23;2.00;;;27.10;1.00;;;;;;6022503;23;20490;-80
2022/09/18 11:29:31;;;;;;;10.77;2.00;;;27.90;1.00;;;;;;6031924;23;20424;-80
2022/09/18 11:32:03;;;;;;;7.77;1.73;;;28.10;1.00;;;;;;6035609;23;20426;-78
2022/09/18 11:34:33;;;;;;;6.60;1.60;;;25.20;1.00;;;;;;6035923;23;20432;-82
2022/09/18 11:37:08;;;;;;;5.20;1.17;;;21.50;1.00;;;;;;6033048;23;20458;-83
2022/09/18 11:39:37;;;;;;;6.40;1.50;;;19.30;1.00;;;;;;6030843;23;21026;-75
2022/09/18 11:42:11;;;;;;;5.40;1.23;;;17.80;1.00;;;;;;6032920;23;21290;-76
2022/09/18 11:44:38;;;;;;;7.40;1.50;;;16.80;1.00;;;;;;6030420;23;21180;-76
2022/09/18 11:47:25;;;;;;;5.70;1.40;;;16.40;1.00;;;;;;6021141;23;20561;-76
2022/09/18 11:50:02;;;;;;;5.60;1.20;;;16.40;1.00;;;;;;6043783;23;20502;-78
2022/09/18 11:52:36;;;;;;;8.17;3.37;;;17.50;1.00;;;;;;6034393;23;21600;-77
2022/09/18 11:55:09;;;;;;;7.90;1.83;;;19.00;1.00;;;;;;6040229;23;20440;-77
2022/09/18 11:57:48;;;;;;;6.70;1.33;;;21.70;1.00;;;;;;6026475;23;20487;-75
2022/09/18 12:00:18;;;;;;;6.40;1.67;;;24.10;1.00;;;;;;6027529;23;20447;-79
2022/09/18 12:02:52;;;;;;;6.90;1.73;;;25.70;1.00;;;;;;6017299;23;20475;-77
2022/09/18 12:05:23;;;;;;;7.17;1.53;;;27.40;1.00;;;;;;6029219;23;20423;-76
2022/09/18 12:08:13;;;;;;;6.63;1.27;;;28.90;1.00;;;;;;6026007;23;20597;-78
2022/09/18 12:10:59;;;;;;;9.53;3.10;;;29.70;1.00;;;;;;6030013;23;20518;-78
2022/09/18 12:13:45;;;;;;;7.80;1.90;;;30.30;1.00;;;;;;6043783;23;20410;-78
2022/09/18 12:16:17;;;;;;;8.37;1.90;;;30.80;1.00;;;;;;6042480;23;20414;-78
2022/09/18 12:18:51;;;;;;;6.50;1.47;;;31.00;1.00;;;;;;6042431;23;20441;-77
2022/09/18 12:21:23;;;;;;;6.70;1.70;;;30.10;1.00;;;;;;6040181;23;20401;-84
2022/09/18 12:23:52;;;;;;;7.40;1.60;;;29.30;1.00;;;;;;6028692;23;20486;-80
2022/09/18 12:26:32;;;;;;;9.93;2.30;;;27.20;1.00;;;;;;6021343;23;20467;-79
2022/09/18 12:29:18;;;;;;;6.70;2.03;;;23.20;1.00;;;;;;6045918;23;20426;-81
2022/09/18 12:31:55;;;;;;;8.40;1.70;;;19.10;1.00;;;;;;6048428;23;20442;-81
2022/09/18 12:34:30;;;;;;;8.97;1.40;;;17.00;1.00;;;;;;6046839;23;20441;-82
2022/09/18 12:37:11;;;;;;;6.10;1.40;;;15.50;1.00;;;;;;6048457;23;20461;-80
2022/09/18 12:39:54;;;;;;;5.00;1.10;;;14.60;1.00;;;;;;6032479;23;20410;-81
2022/09/18 12:42:30;;;;;;;5.67;1.40;;;16.00;1.00;;;;;;6031042;23;20431;-80
2022/09/18 12:45:26;;;;;;;5.40;0.80;;;18.80;1.00;;;;;;6030449;23;20426;-80
2022/09/18 12:48:10;;;;;;;5.87;1.40;;;22.00;1.00;;;;;;6034077;23;20997;-83
2022/09/18 12:50:51;;;;;;;6.70;1.60;;;24.70;1.00;;;;;;6035093;23;20432;-79
2022/09/18 12:53:35;;;;;;;5.60;1.40;;;26.40;1.00;;;;;;6033629;23;20423;-81
2022/09/18 12:56:16;;;;;;;5.10;0.90;;;28.30;1.00;;;;;;6032635;23;20530;-81
2022/09/18 12:59:07;;;;;;;8.30;2.70;;;29.70;1.00;;;;;;6034414;23;20518;-78
2022/09/18 13:01:39;;;;;;;5.50;1.10;;;30.20;1.00;;;;;;6036567;23;20418;-81
2022/09/18 13:04:18;;;;;;;5.60;1.27;;;31.20;1.00;;;;;;6030675;23;20511;-79
2022/09/18 13:06:54;;;;;;;5.50;1.40;;;31.20;1.00;;;;;;6034431;23;20860;-80
2022/09/18 13:09:29;;;;;;;6.30;1.97;;;30.90;1.00;;;;;;6038422;23;20833;-80
2022/09/18 13:12:08;;;;;;;7.43;2.10;;;29.50;1.00;;;;;;6040171;23;20424;-80
2022/09/18 13:14:41;;;;;;;7.83;2.10;;;27.40;1.00;;;;;;6052111;23;20457;-80
2022/09/18 13:17:13;;;;;;;8.33;1.83;;;27.10;1.00;;;;;;6032237;23;20443;-80
2022/09/18 13:19:48;;;;;;;7.17;1.80;;;26.90;1.00;;;;;;6031690;23;20423;-82
2022/09/18 13:22:20;;;;;;;6.20;1.77;;;25.60;1.00;;;;;;6044527;23;20417;-81
2022/09/18 13:24:51;;;;;;;6.70;1.27;;;24.00;1.00;;;;;;6034597;23;20889;-79
2022/09/18 13:27:25;;;;;;;7.07;1.80;;;22.50;1.00;;;;;;6029896;23;20550;-81
2022/09/18 13:29:57;;;;;;;7.17;1.90;;;20.70;1.00;;;;;;6036860;23;20434;-80